Time;durP1;ratioP1;P1;durP2;ratioP2;P2;SDS_P1;SDS_P2;PMS_P1;PMS_P2;Temp;Humidity;BMP_temperature;BMP_pressure;BME280_temperature;BME280_humidity;BME280_pressure;Samples;Min_cycle;Max_cycle;Signal;HPM_P1;HPM_P2
2022/10/10 00:01:20;;;;;;;6.77;2.87;;;;;;;20.39;61.78;100374.78;5017645;28;20478;-69
2022/10/10 00:03:46;;;;;;;4.70;2.20;;;;;;;20.39;61.82;100371.91;5017126;28;20242;-69
2022/10/10 00:06:11;;;;;;;5.50;2.27;;;;;;;20.39;62.21;100374.78;5050840;28;20156;-69
2022/10/10 00:08:37;;;;;;;4.60;2.47;;;;;;;20.42;61.58;100370.28;5000362;28;20176;-69
2022/10/10 00:11:03;;;;;;;4.23;2.60;;;;;;;20.38;62.04;100370.25;5050575;28;20187;-69
2022/10/10 00:13:28;;;;;;;4.63;2.20;;;;;;;20.36;61.90;100375.53;5033710;28;20240;-69
2022/10/10 00:15:54;;;;;;;4.50;2.00;;;;;;;20.36;62.11;100372.66;5032564;28;20461;-69
2022/10/10 00:18:19;;;;;;;4.53;2.20;;;;;;;20.36;62.18;100369.81;5016520;28;20194;-69
2022/10/10 00:20:45;;;;;;;3.77;2.37;;;;;;;20.39;62.17;100368.19;5050217;28;20565;-69
2022/10/10 00:23:10;;;;;;;5.23;2.43;;;;;;;20.38;62.05;100367.38;5054160;28;20559;-69
2022/10/10 00:25:36;;;;;;;5.17;2.53;;;;;;;20.37;62.13;100359.97;5038361;28;20160;-69
2022/10/10 00:28:02;;;;;;;5.77;2.50;;;;;;;20.38;62.06;100363.69;5037943;28;20183;-69
2022/10/10 00:30:27;;;;;;;3.90;2.10;;;;;;;20.38;62.11;100361.66;5038335;28;20167;-69
2022/10/10 00:32:53;;;;;;;6.33;2.20;;;;;;;20.36;62.11;100364.06;5037974;28;20751;-69
2022/10/10 00:35:18;;;;;;;4.90;2.43;;;;;;;20.37;62.26;100362.84;5037756;28;20629;-69
2022/10/10 00:37:44;;;;;;;4.40;2.07;;;;;;;20.36;62.68;100360.41;5054399;28;20553;-69
2022/10/10 00:40:10;;;;;;;4.87;2.23;;;;;;;20.37;62.29;100359.19;5038183;28;20184;-68
2022/10/10 00:42:35;;;;;;;5.50;2.17;;;;;;;20.36;62.36;100357.53;5037939;28;20176;-69
2022/10/10 00:45:34;;;;;;;4.93;2.40;;;;;;;20.37;62.14;100359.97;5055824;28;20421;-69
2022/10/10 00:48:10;;;;;;;5.43;2.47;;;;;;;20.35;62.32;100359.56;5056169;28;20160;-69
2022/10/10 00:50:39;;;;;;;9.30;2.33;;;;;;;20.35;62.37;100358.72;5037615;28;20479;-69
2022/10/10 00:53:05;;;;;;;3.80;1.90;;;;;;;20.36;62.29;100357.53;5037851;28;20441;-69
2022/10/10 00:55:30;;;;;;;2.20;1.57;;;;;;;20.37;62.61;100359.97;5037574;28;20457;-69
2022/10/10 00:57:56;;;;;;;3.93;2.27;;;;;;;20.34;62.52;100352.19;5037488;28;20210;-69
2022/10/10 01:00:33;;;;;;;4.03;2.03;;;;;;;20.34;62.45;100352.19;5037612;28;20616;-69
2022/10/10 01:02:59;;;;;;;3.03;1.73;;;;;;;20.33;62.38;100358.31;5032069;28;20202;-69
2022/10/10 01:05:24;;;;;;;3.53;2.10;;;;;;;20.35;62.52;100352.97;5020988;28;20426;-69
2022/10/10 01:07:50;;;;;;;5.00;2.33;;;;;;;20.35;62.38;100356.69;5055505;28;20608;-68
2022/10/10 01:10:16;;;;;;;6.33;2.33;;;;;;;20.33;62.37;100347.66;5055753;28;20215;-69
2022/10/10 01:13:00;;;;;;;4.97;2.20;;;;;;;20.32;62.61;100357.47;5021140;28;20199;-68
2022/10/10 01:15:58;;;;;;;2.60;1.87;;;;;;;20.33;62.45;100353.41;5055519;28;20546;-68
2022/10/10 01:18:50;;;;;;;4.57;2.10;;;;;;;20.32;62.45;100348.88;5006977;28;20444;-68
2022/10/10 01:21:41;;;;;;;3.67;2.20;;;;;;;20.33;62.46;100350.53;5037617;28;20921;-69
2022/10/10 01:24:28;;;;;;;3.90;2.30;;;;;;;20.33;62.42;100350.53;5055194;28;20406;-68
2022/10/10 01:27:07;;;;;;;3.90;2.20;;;;;;;20.33;63.08;100353.41;5037767;28;20457;-68
2022/10/10 01:29:37;;;;;;;3.20;1.93;;;;;;;20.33;62.79;100350.53;5054395;28;20414;-68
2022/10/10 01:32:13;;;;;;;4.17;1.90;;;;;;;20.31;62.67;100347.22;5054602;28;20904;-69
2022/10/10 01:34:54;;;;;;;4.60;1.93;;;;;;;20.32;62.66;100348.88;5036705;28;20477;-68
2022/10/10 01:37:58;;;;;;;3.20;1.90;;;;;;;20.34;62.35;100351.34;5054746;28;20410;-68
2022/10/10 01:40:55;;;;;;;3.77;1.93;;;;;;;20.30;63.01;100348.44;5038283;28;20520;-68
2022/10/10 01:43:23;;;;;;;3.40;2.07;;;;;;;20.31;62.57;100352.94;5005209;28;20429;-68
2022/10/10 01:45:50;;;;;;;8.93;2.50;;;;;;;20.32;62.31;100351.72;5037716;28;20411;-68
2022/10/10 01:48:24;;;;;;;4.87;2.47;;;;;;;20.32;62.76;100348.06;5038024;28;20429;-68
2022/10/10 01:51:27;;;;;;;2.63;1.80;;;;;;;20.30;62.67;100345.56;5037891;28;20764;-68
2022/10/10 01:53:59;;;;;;;4.87;2.70;;;;;;;20.31;62.94;100338.63;5037676;28;20449;-68
2022/10/10 01:56:27;;;;;;;4.20;2.13;;;;;;;20.32;62.68;100337.38;5055517;28;20403;-68
2022/10/10 01:59:14;;;;;;;4.57;2.30;;;;;;;20.29;62.60;100329.59;5037209;28;20418;-68
2022/10/10 02:01:52;;;;;;;3.37;1.80;;;;;;;20.29;62.91;100332.47;5054786;28;20476;-68
2022/10/10 02:04:35;;;;;;;4.17;1.83;;;;;;;20.28;63.04;100325.09;5036575;28;20544;-68
2022/10/10 02:07:05;;;;;;;3.00;2.00;;;;;;;20.28;63.19;100327.94;5053043;28;20847;-68
2022/10/10 02:09:38;;;;;;;3.90;1.90;;;;;;;20.29;63.00;100325.88;5004926;28;20426;-68
2022/10/10 02:12:04;;;;;;;3.20;2.00;;;;;;;20.28;62.93;100313.63;5021070;28;20902;-68
2022/10/10 02:14:33;;;;;;;3.30;2.17;;;;;;;20.29;63.16;100314.41;5037012;28;20490;-68
2022/10/10 02:16:58;;;;;;;4.90;2.10;;;;;;;20.27;62.78;100314.81;5037260;28;20458;-68
2022/10/10 02:19:24;;;;;;;3.57;1.70;;;;;;;20.28;62.72;100319.34;5020546;28;20832;-68
2022/10/10 02:21:50;;;;;;;3.47;2.17;;;;;;;20.30;62.51;100321.78;5003839;28;20188;-69
2022/10/10 02:24:15;;;;;;;4.10;2.40;;;;;;;20.27;62.75;100319.72;5036897;28;20206;-68
2022/10/10 02:26:43;;;;;;;4.47;2.27;;;;;;;20.27;63.00;100311.13;5036747;28;20829;-68
2022/10/10 02:29:10;;;;;;;3.23;1.80;;;;;;;20.29;62.62;100317.28;5036945;28;20210;-69
2022/10/10 02:31:49;;;;;;;4.57;2.20;;;;;;;20.26;63.52;100316.03;5020322;28;20461;-68
2022/10/10 02:34:22;;;;;;;5.20;2.27;;;;;;;20.27;63.00;100320.53;5019827;28;20450;-68
2022/10/10 02:36:49;;;;;;;3.10;1.90;;;;;;;20.26;63.02;100329.56;5037149;28;20827;-68
2022/10/10 02:39:14;;;;;;;3.53;1.70;;;;;;;20.26;62.69;100333.22;5053301;28;20457;-68
2022/10/10 02:41:40;;;;;;;5.03;1.80;;;;;;;20.26;62.69;100326.69;5035938;28;20406;-68
2022/10/10 02:44:06;;;;;;;3.40;1.50;;;;;;;20.26;62.76;100327.50;5052675;28;20643;-68
2022/10/10 02:46:31;;;;;;;4.60;1.80;;;;;;;20.26;63.11;100329.56;5036019;28;20175;-68
2022/10/10 02:48:57;;;;;;;3.30;1.70;;;;;;;20.27;63.28;100322.59;5052321;28;20167;-68
2022/10/10 02:51:22;;;;;;;3.40;1.50;;;;;;;20.25;62.86;100320.13;5036465;28;20183;-68
2022/10/10 02:53:48;;;;;;;2.33;1.50;;;;;;;20.23;63.23;100311.09;5036061;28;20520;-68
2022/10/10 02:56:13;;;;;;;3.23;1.60;;;;;;;20.24;63.04;100321.34;5035861;28;20171;-68
2022/10/10 02:58:39;;;;;;;4.30;2.33;;;;;;;20.25;62.85;100331.59;5019698;28;20705;-68
2022/10/10 03:01:04;;;;;;;2.77;1.73;;;;;;;20.26;62.72;100324.63;5036700;28;20219;-68
2022/10/10 03:03:30;;;;;;;3.37;1.57;;;;;;;20.26;63.32;100336.09;5053506;28;20218;-68
2022/10/10 03:05:55;;;;;;;2.97;1.80;;;;;;;20.23;62.82;100328.31;5019820;28;20190;-68
2022/10/10 03:08:21;;;;;;;3.60;2.13;;;;;;;20.25;62.95;100319.28;5035944;28;20187;-68
2022/10/10 03:10:55;;;;;;;3.80;1.77;;;;;;;20.25;63.13;100320.13;5051490;28;20171;-68
2022/10/10 03:13:21;;;;;;;3.70;1.83;;;;;;;20.23;62.90;100325.44;5035830;28;20729;-68
2022/10/10 03:15:46;;;;;;;4.17;1.93;;;;;;;20.25;63.13;100330.75;5036363;28;20473;-68
2022/10/10 03:18:12;;;;;;;3.90;2.27;;;;;;;20.23;62.98;100325.44;5052547;28;20238;-69
2022/10/10 03:20:37;;;;;;;3.13;1.70;;;;;;;20.21;63.10;100324.97;5053921;28;20184;-68
2022/10/10 03:23:03;;;;;;;2.97;1.60;;;;;;;20.25;62.80;100323.00;5019525;28;20187;-68
2022/10/10 03:25:28;;;;;;;3.13;1.40;;;;;;;20.24;63.57;100320.50;5054268;28;20179;-68
2022/10/10 03:27:53;;;;;;;3.50;1.80;;;;;;;20.24;62.93;100311.91;5035827;28;20183;-68
2022/10/10 03:30:19;;;;;;;3.20;2.13;;;;;;;20.25;63.07;100320.13;5035570;28;20206;-68
2022/10/10 03:32:44;;;;;;;2.83;1.80;;;;;;;20.24;63.06;100324.22;5035614;28;20321;-68
2022/10/10 03:35:10;;;;;;;3.20;2.00;;;;;;;20.23;63.15;100324.59;5053327;28;20207;-68
2022/10/10 03:37:35;;;;;;;3.60;1.80;;;;;;;20.26;62.97;100333.22;5052675;28;20171;-68
2022/10/10 03:40:01;;;;;;;3.30;1.80;;;;;;;20.27;63.01;100334.06;5053102;28;20202;-68
2022/10/10 03:42:26;;;;;;;2.03;1.43;;;;;;;20.25;62.12;100337.31;5053283;28;20226;-68
2022/10/10 03:44:51;;;;;;;3.77;1.80;;;;;;;20.24;62.69;100340.56;5035881;28;20178;-68
2022/10/10 03:47:17;;;;;;;2.10;1.40;;;;;;;20.24;62.71;100337.72;5036125;28;20212;-68
2022/10/10 03:49:42;;;;;;;3.63;1.60;;;;;;;20.24;62.89;100338.53;5051849;28;20175;-68
2022/10/10 03:52:08;;;;;;;2.97;1.70;;;;;;;20.25;62.97;100330.75;5052876;28;20550;-68
2022/10/10 03:54:33;;;;;;;2.43;1.50;;;;;;;20.24;62.88;100329.94;5051716;28;20674;-69
2022/10/10 03:56:59;;;;;;;2.83;1.50;;;;;;;20.24;63.25;100326.25;5034130;28;20612;-69
2022/10/10 03:59:24;;;;;;;3.80;1.83;;;;;;;20.23;63.30;100338.94;5053413;28;20171;-68
2022/10/10 04:01:49;;;;;;;2.70;1.60;;;;;;;20.23;63.05;100334.03;5035456;28;20572;-68
2022/10/10 04:04:15;;;;;;;4.17;2.00;;;;;;;20.25;63.14;100330.75;5019423;28;20188;-68
2022/10/10 04:06:40;;;;;;;2.97;1.57;;;;;;;20.23;63.12;100328.31;5036340;28;20163;-69
2022/10/10 04:09:06;;;;;;;5.10;1.60;;;;;;;20.25;63.14;100325.84;5020024;28;20175;-68
2022/10/10 04:11:31;;;;;;;2.80;1.50;;;;;;;20.22;62.73;100320.88;5036597;28;20536;-68
2022/10/10 04:13:57;;;;;;;3.33;1.87;;;;;;;20.23;62.98;100328.31;5003489;28;20207;-68
2022/10/10 04:16:23;;;;;;;3.70;2.10;;;;;;;20.26;63.20;100332.44;5019223;28;20234;-68
2022/10/10 04:18:49;;;;;;;3.37;1.50;;;;;;;20.26;63.24;100336.09;5052787;28;20595;-68
2022/10/10 04:21:15;;;;;;;3.80;1.80;;;;;;;20.25;63.40;100337.31;5034996;28;20249;-68
2022/10/10 04:23:40;;;;;;;3.53;1.80;;;;;;;20.25;63.06;100334.44;5035016;28;20430;-68
2022/10/10 04:26:06;;;;;;;2.67;1.70;;;;;;;20.24;63.20;100329.09;5053312;28;20164;-68
2022/10/10 04:28:31;;;;;;;2.27;1.40;;;;;;;20.25;63.52;100323.00;5035330;28;20160;-68
2022/10/10 04:30:57;;;;;;;3.20;1.63;;;;;;;20.23;63.15;100327.47;5036610;28;20172;-68
2022/10/10 04:33:22;;;;;;;2.80;1.77;;;;;;;20.25;63.12;100337.31;5036937;28;20164;-68
2022/10/10 04:35:49;;;;;;;2.70;1.60;;;;;;;20.28;63.24;100342.28;5055390;28;20207;-68
2022/10/10 04:38:15;;;;;;;2.53;1.53;;;;;;;20.25;63.00;100331.59;5037789;28;20175;-68
2022/10/10 04:40:40;;;;;;;2.80;1.43;;;;;;;20.27;63.34;100334.06;5054209;28;20432;-69
2022/10/10 04:43:05;;;;;;;2.80;1.60;;;;;;;20.27;63.12;100334.06;5037797;28;20552;-68
2022/10/10 04:45:31;;;;;;;2.30;1.40;;;;;;;20.26;63.28;100327.50;5052973;28;20491;-68
2022/10/10 04:47:57;;;;;;;2.70;1.60;;;;;;;20.25;62.88;100327.88;5036286;28;20495;-68
2022/10/10 04:50:23;;;;;;;3.00;1.70;;;;;;;20.25;63.04;100319.28;5053828;28;20183;-68
2022/10/10 04:52:48;;;;;;;2.47;1.80;;;;;;;20.25;62.95;100319.28;5035990;28;20426;-69
2022/10/10 04:55:14;;;;;;;5.53;2.07;;;;;;;20.25;62.94;100328.72;5053607;28;20192;-68
2022/10/10 04:57:39;;;;;;;3.83;1.73;;;;;;;20.28;62.71;100327.94;5035870;28;20683;-68
2022/10/10 05:00:05;;;;;;;3.80;1.40;;;;;;;20.26;63.07;100333.22;5035841;28;20568;-68
2022/10/10 05:02:31;;;;;;;2.60;1.40;;;;;;;20.25;62.83;100334.44;5036320;28;20259;-69
2022/10/10 05:04:56;;;;;;;2.93;1.80;;;;;;;20.26;62.87;100338.97;5052160;28;20192;-69
2022/10/10 05:07:22;;;;;;;2.20;1.13;;;;;;;20.27;63.47;100331.19;5036014;28;20163;-69
2022/10/10 05:09:48;;;;;;;1.97;1.30;;;;;;;20.26;62.78;100341.03;5022302;28;20235;-68
2022/10/10 05:12:13;;;;;;;2.20;1.40;;;;;;;20.26;63.34;100344.69;5023635;28;20888;-69
2022/10/10 05:14:39;;;;;;;4.07;1.40;;;;;;;20.26;63.88;100333.22;5022428;28;20191;-68
2022/10/10 05:17:04;;;;;;;3.37;1.93;;;;;;;20.27;63.17;100339.81;5024003;28;20190;-68
2022/10/10 05:19:30;;;;;;;3.00;1.80;;;;;;;20.26;62.85;100338.97;5058320;28;20180;-68
2022/10/10 05:21:55;;;;;;;2.10;1.30;;;;;;;20.26;63.09;100341.03;5057109;28;20191;-68
2022/10/10 05:24:21;;;;;;;3.67;1.67;;;;;;;20.25;62.99;100342.22;5056526;28;20164;-69
2022/10/10 05:26:47;;;;;;;2.40;1.50;;;;;;;20.28;63.17;100350.03;5003241;28;20179;-68
2022/10/10 05:29:12;;;;;;;2.63;1.77;;;;;;;20.29;62.56;100351.69;5036837;28;20423;-68
2022/10/10 05:31:38;;;;;;;2.70;1.30;;;;;;;20.28;63.41;100347.19;5037116;28;20156;-68
2022/10/10 05:34:03;;;;;;;3.40;1.90;;;;;;;20.28;62.83;100348.03;5036517;28;20562;-69
2022/10/10 05:36:29;;;;;;;3.60;1.77;;;;;;;20.28;63.46;100345.16;5033301;28;20527;-68
2022/10/10 05:38:54;;;;;;;2.70;1.53;;;;;;;20.26;62.85;100346.75;5057695;28;20194;-68
2022/10/10 05:41:19;;;;;;;2.47;1.57;;;;;;;20.26;63.32;100341.84;5040023;28;20168;-68
2022/10/10 05:43:45;;;;;;;3.67;1.43;;;;;;;20.29;63.09;100343.94;5058033;28;20171;-69
2022/10/10 05:46:10;;;;;;;3.43;1.73;;;;;;;20.27;62.91;100343.47;5057283;28;20160;-68
2022/10/10 05:48:36;;;;;;;3.00;1.80;;;;;;;20.27;62.83;100340.59;5055017;28;20160;-68
2022/10/10 05:51:02;;;;;;;2.37;1.33;;;;;;;20.26;62.76;100343.91;5056212;28;20160;-69
2022/10/10 05:53:28;;;;;;;3.10;1.60;;;;;;;20.27;63.33;100352.06;5056982;28;20160;-68
2022/10/10 05:55:54;;;;;;;2.87;1.60;;;;;;;20.27;63.15;100357.81;4996423;28;20210;-68
2022/10/10 05:58:19;;;;;;;2.43;1.43;;;;;;;20.28;63.00;100364.38;5020962;28;20434;-68
2022/10/10 06:00:45;;;;;;;2.77;1.70;;;;;;;20.31;62.68;100355.00;5023338;28;20184;-68
2022/10/10 06:03:12;;;;;;;2.80;1.67;;;;;;;20.28;63.10;100356.63;5039933;28;20202;-69
2022/10/10 06:05:39;;;;;;;4.30;1.70;;;;;;;20.32;63.32;100357.47;5055691;28;20698;-68
2022/10/10 06:08:04;;;;;;;2.87;1.73;;;;;;;20.29;63.09;100360.28;5056699;28;20441;-68
2022/10/10 06:10:33;;;;;;;2.63;1.50;;;;;;;20.27;63.01;100363.53;5022528;28;20418;-68
2022/10/10 06:12:59;;;;;;;3.40;1.60;;;;;;;20.29;63.00;100355.41;5021740;28;20191;-68
2022/10/10 06:15:24;;;;;;;3.10;2.07;;;;;;;20.31;63.42;100360.75;5055833;28;20528;-68
2022/10/10 06:17:49;;;;;;;2.23;1.37;;;;;;;20.31;63.03;100369.34;5045164;28;20181;-68
2022/10/10 06:20:15;;;;;;;2.33;1.60;;;;;;;20.29;63.85;100364.00;5033261;28;20188;-69
2022/10/10 06:22:40;;;;;;;2.23;1.57;;;;;;;20.29;63.12;100378.34;5050814;28;20187;-68
2022/10/10 06:25:06;;;;;;;3.23;1.50;;;;;;;20.28;62.99;100365.22;5023025;28;20191;-69
2022/10/10 06:27:31;;;;;;;2.30;1.40;;;;;;;20.32;63.10;100368.94;5026610;28;20192;-68
2022/10/10 06:29:57;;;;;;;2.67;1.70;;;;;;;20.29;63.08;100366.88;5020425;28;20176;-68
2022/10/10 06:32:22;;;;;;;2.93;1.20;;;;;;;20.29;63.08;100378.34;5039591;28;20169;-69
2022/10/10 06:34:48;;;;;;;2.73;1.80;;;;;;;20.30;63.21;100379.13;5034683;28;20216;-68
2022/10/10 06:37:14;;;;;;;2.80;1.60;;;;;;;20.31;62.66;100375.88;5040904;28;20202;-69
2022/10/10 06:39:39;;;;;;;2.10;1.40;;;;;;;20.31;63.13;100380.81;5037004;28;20553;-68
2022/10/10 06:42:05;;;;;;;3.67;1.60;;;;;;;20.29;62.92;100374.63;5034805;28;20195;-68
2022/10/10 06:44:30;;;;;;;2.73;1.43;;;;;;;20.30;63.44;100379.13;5026254;28;20180;-69
2022/10/10 06:46:55;;;;;;;2.50;1.37;;;;;;;20.31;63.08;100384.50;5026482;28;20183;-68
2022/10/10 06:49:21;;;;;;;3.10;1.57;;;;;;;20.33;62.79;100389.84;5027899;28;20179;-68
2022/10/10 06:51:46;;;;;;;2.10;1.50;;;;;;;20.32;62.84;100389.00;5029101;28;20179;-68
2022/10/10 06:54:12;;;;;;;2.63;2.00;;;;;;;20.33;63.35;100396.41;5035528;28;20635;-68
2022/10/10 06:56:37;;;;;;;2.60;1.90;;;;;;;20.32;62.84;100391.06;5032561;28;20548;-68
2022/10/10 06:59:03;;;;;;;1.87;1.10;;;;;;;20.33;63.02;100392.72;5042345;28;20177;-68
2022/10/10 07:01:28;;;;;;;2.83;1.50;;;;;;;20.32;62.91;100400.47;5013721;28;20258;-69
2022/10/10 07:03:54;;;;;;;2.03;1.23;;;;;;;20.31;62.83;100398.81;5030536;28;20227;-68
2022/10/10 07:06:19;;;;;;;3.13;1.43;;;;;;;20.33;63.02;100410.75;5030901;28;20713;-68
2022/10/10 07:08:45;;;;;;;2.53;1.40;;;;;;;20.33;62.92;100409.91;5029922;28;21002;-68
2022/10/10 07:11:10;;;;;;;2.03;1.30;;;;;;;20.33;63.21;100413.63;5032132;28;20839;-68
2022/10/10 07:13:36;;;;;;;2.60;1.40;;;;;;;20.33;63.13;100412.78;5035836;28;20669;-69
2022/10/10 07:16:02;;;;;;;3.10;1.30;;;;;;;20.33;63.15;100413.63;5023258;28;20587;-68
2022/10/10 07:18:27;;;;;;;2.13;1.33;;;;;;;20.35;62.73;100416.06;5014212;28;20172;-68
2022/10/10 07:20:57;;;;;;;2.50;1.50;;;;;;;20.33;63.16;100419.34;5031807;28;20421;-68
2022/10/10 07:23:22;;;;;;;3.23;1.90;;;;;;;20.33;62.90;100407.88;5015172;28;20227;-68
2022/10/10 07:25:48;;;;;;;2.13;1.40;;;;;;;20.35;62.93;100404.59;5024728;28;20469;-68
2022/10/10 07:28:13;;;;;;;2.17;1.50;;;;;;;20.34;62.61;100412.41;5025810;28;20180;-68
2022/10/10 07:30:40;;;;;;;2.30;1.53;;;;;;;20.32;63.08;100417.69;5032267;28;20179;-68
2022/10/10 07:33:05;;;;;;;3.07;1.50;;;;;;;20.33;62.89;100409.91;5029869;28;20224;-68
2022/10/10 07:35:31;;;;;;;2.70;1.40;;;;;;;20.34;63.00;100412.41;5031571;28;21539;-68
2022/10/10 07:37:56;;;;;;;2.60;1.47;;;;;;;20.35;63.52;100405.44;5023214;28;20171;-68
2022/10/10 07:40:22;;;;;;;2.33;1.33;;;;;;;20.33;62.92;100410.75;5040519;28;20202;-68
2022/10/10 07:42:47;;;;;;;2.10;1.30;;;;;;;20.35;63.09;100416.91;5029718;28;20191;-68
2022/10/10 07:45:12;;;;;;;3.03;1.60;;;;;;;20.36;63.31;100418.56;5040024;28;20176;-68
2022/10/10 07:47:38;;;;;;;2.20;1.33;;;;;;;20.36;62.78;100421.41;5045228;28;20173;-68
2022/10/10 07:50:05;;;;;;;2.47;1.37;;;;;;;20.38;62.65;100413.28;5026214;28;20218;-68
2022/10/10 07:52:31;;;;;;;2.20;1.60;;;;;;;20.39;62.85;100417.78;5039859;28;20196;-68
2022/10/10 07:54:56;;;;;;;2.70;1.63;;;;;;;20.38;63.09;100421.88;5033877;28;20469;-68
2022/10/10 07:57:21;;;;;;;2.10;1.40;;;;;;;20.39;62.74;100411.22;5043557;28;20180;-68
2022/10/10 07:59:47;;;;;;;2.27;1.40;;;;;;;20.39;63.14;100420.66;5025814;28;20187;-68
2022/10/10 08:02:12;;;;;;;2.53;1.43;;;;;;;20.38;62.89;100418.16;5029729;28;20668;-68
2022/10/10 08:04:39;;;;;;;3.20;1.83;;;;;;;20.39;63.05;100414.91;5019127;28;20266;-68
2022/10/10 08:07:04;;;;;;;2.07;1.27;;;;;;;20.38;62.85;100419.00;5026151;28;20191;-68
2022/10/10 08:09:30;;;;;;;3.23;1.70;;;;;;;20.38;62.97;100421.88;5025302;28;20984;-68
2022/10/10 08:11:55;;;;;;;1.97;1.20;;;;;;;20.38;62.90;100421.88;5039850;28;20188;-68
2022/10/10 08:14:21;;;;;;;2.53;1.40;;;;;;;20.39;63.13;100414.91;5041250;28;20218;-68
2022/10/10 08:16:46;;;;;;;2.27;1.30;;;;;;;20.39;62.98;100417.78;5023000;28;20389;-68
2022/10/10 08:19:12;;;;;;;2.90;1.43;;;;;;;20.39;62.99;100412.03;5032541;28;20192;-68
2022/10/10 08:21:37;;;;;;;2.03;1.23;;;;;;;20.40;62.83;100424.31;5039419;28;20180;-68
2022/10/10 08:24:03;;;;;;;2.37;1.57;;;;;;;20.39;62.92;100423.53;5026644;28;20362;-68
2022/10/10 08:26:28;;;;;;;2.33;1.40;;;;;;;20.41;63.16;100429.69;5037079;28;20546;-68
2022/10/10 08:28:54;;;;;;;2.23;1.47;;;;;;;20.38;62.87;100426.78;5013224;28;20191;-68
2022/10/10 08:31:20;;;;;;;2.63;1.47;;;;;;;20.40;62.96;100424.31;5037762;28;20249;-68
2022/10/10 08:33:45;;;;;;;2.00;1.20;;;;;;;20.41;62.99;100426.00;5038778;28;20191;-68
2022/10/10 08:36:16;;;;;;;2.70;1.40;;;;;;;20.42;63.03;100428.47;5024831;28;20540;-68
2022/10/10 08:38:42;;;;;;;2.53;1.23;;;;;;;20.40;62.71;100421.47;5036591;28;20225;-68
2022/10/10 08:41:12;;;;;;;2.33;1.57;;;;;;;20.43;62.84;100426.44;5025112;28;20910;-68
2022/10/10 08:43:44;;;;;;;2.37;1.47;;;;;;;20.42;63.03;100427.66;5020491;28;20222;-68
2022/10/10 08:46:34;;;;;;;3.10;1.77;;;;;;;20.41;62.71;100426.00;5034086;28;20415;-68
2022/10/10 08:49:00;;;;;;;2.20;1.40;;;;;;;20.43;63.29;100435.88;5004555;28;20468;-68
2022/10/10 08:51:27;;;;;;;2.63;1.30;;;;;;;20.40;62.87;100424.31;5038896;28;21296;-68
2022/10/10 08:53:54;;;;;;;2.33;1.50;;;;;;;20.43;62.93;100415.78;5032328;28;20448;-68
2022/10/10 08:56:26;;;;;;;2.60;1.40;;;;;;;20.44;62.84;100428.06;5033964;28;20421;-68
2022/10/10 08:58:54;;;;;;;2.70;1.37;;;;;;;20.42;63.31;100425.59;5016610;28;20496;-69
2022/10/10 09:01:23;;;;;;;1.83;0.93;;;;;;;20.42;62.82;100422.72;5024234;28;20438;-69
2022/10/10 09:03:59;;;;;;;2.27;1.37;;;;;;;20.43;63.02;100424.41;5035715;28;20508;-68
2022/10/10 09:06:58;;;;;;;1.93;1.20;;;;;;;20.46;62.84;100431.38;5043269;28;20440;-68
2022/10/10 09:10:02;;;;;;;2.53;1.40;;;;;;;20.46;63.10;100440.00;5040656;28;20426;-68
2022/10/10 09:12:56;;;;;;;2.20;1.33;;;;;;;20.45;62.92;100427.69;5020217;28;20528;-69
2022/10/10 09:15:42;;;;;;;2.40;1.40;;;;;;;20.45;63.11;100426.84;5040881;28;20985;-68
2022/10/10 09:18:07;;;;;;;2.67;1.40;;;;;;;20.42;63.34;100421.91;5038776;28;20417;-68
2022/10/10 09:20:38;;;;;;;2.07;1.30;;;;;;;20.45;62.59;100427.69;5039424;28;21172;-68
2022/10/10 09:23:19;;;;;;;2.90;1.60;;;;;;;20.43;63.11;100427.25;5022414;28;20647;-69
2022/10/10 09:26:05;;;;;;;2.30;1.40;;;;;;;20.44;63.11;100419.47;5030368;28;20991;-69
2022/10/10 09:28:43;;;;;;;1.80;1.10;;;;;;;20.47;62.83;100415.81;5039947;28;20480;-69
2022/10/10 09:31:35;;;;;;;3.93;1.60;;;;;;;20.45;62.74;100413.34;5022973;28;20834;-69
2022/10/10 09:34:16;;;;;;;2.10;1.27;;;;;;;20.43;63.03;100410.06;5003264;28;20454;-69
2022/10/10 09:36:41;;;;;;;2.57;1.47;;;;;;;20.45;63.48;100409.63;5031976;28;20528;-68
2022/10/10 09:39:34;;;;;;;2.37;1.50;;;;;;;20.44;63.19;100411.69;5023586;28;20422;-69
2022/10/10 09:42:00;;;;;;;2.63;1.73;;;;;;;20.48;62.91;100408.88;5026453;28;20189;-69
2022/10/10 09:44:26;;;;;;;2.70;1.53;;;;;;;20.45;63.26;100401.03;5026205;28;20430;-69
2022/10/10 09:46:52;;;;;;;2.10;1.23;;;;;;;20.44;63.07;100408.00;5030801;28;20434;-69
2022/10/10 09:49:18;;;;;;;2.20;1.40;;;;;;;20.44;63.52;100411.69;5032755;28;20203;-69
2022/10/10 09:51:44;;;;;;;2.37;1.50;;;;;;;20.44;62.85;100408.84;5041291;28;20529;-69
2022/10/10 09:54:10;;;;;;;2.33;1.40;;;;;;;20.44;62.85;100411.69;5033054;28;20291;-69
2022/10/10 09:56:57;;;;;;;2.03;1.37;;;;;;;20.47;63.01;100410.91;5033360;28;20780;-69
2022/10/10 09:59:37;;;;;;;2.70;1.43;;;;;;;20.45;63.25;100406.78;5033800;28;21070;-69
2022/10/10 10:02:12;;;;;;;2.70;1.23;;;;;;;20.46;62.98;100409.25;5043696;28;21371;-69
2022/10/10 10:04:37;;;;;;;2.20;1.40;;;;;;;20.45;63.13;100410.47;5025200;28;20450;-69
2022/10/10 10:07:19;;;;;;;2.40;1.30;;;;;;;20.49;62.87;100402.75;5045712;28;20488;-69
2022/10/10 10:09:55;;;;;;;2.43;1.43;;;;;;;20.47;63.01;100410.91;5045005;28;20294;-69
2022/10/10 10:12:26;;;;;;;2.87;1.47;;;;;;;20.48;62.72;100409.72;5027329;28;20486;-69
2022/10/10 10:14:56;;;;;;;2.30;1.30;;;;;;;20.47;63.06;100408.03;5041706;28;20463;-69
2022/10/10 10:17:22;;;;;;;2.63;1.40;;;;;;;20.49;62.61;100411.34;5026345;28;20430;-70
2022/10/10 10:19:47;;;;;;;2.00;1.30;;;;;;;20.49;62.96;100411.34;5041234;28;20895;-69
2022/10/10 10:22:32;;;;;;;2.43;1.33;;;;;;;20.49;62.86;100413.38;5024069;28;20179;-69
2022/10/10 10:24:59;;;;;;;2.53;1.43;;;;;;;20.51;62.71;100410.94;5026218;28;20184;-69
2022/10/10 10:27:25;;;;;;;2.57;1.67;;;;;;;20.48;62.67;100415.44;5024186;28;20434;-69
2022/10/10 10:29:53;;;;;;;3.03;1.60;;;;;;;20.48;63.12;100415.44;5026330;28;20465;-68
2022/10/10 10:32:32;;;;;;;3.90;1.53;;;;;;;20.48;63.25;100421.19;5031373;28;20419;-69
2022/10/10 10:35:17;;;;;;;2.17;1.27;;;;;;;20.50;62.96;100418.72;5037547;28;20458;-69
2022/10/10 10:38:15;;;;;;;2.17;1.20;;;;;;;20.51;63.10;100423.25;5037511;28;20427;-69
2022/10/10 10:41:01;;;;;;;2.63;1.50;;;;;;;20.53;62.88;100428.59;5017876;28;20423;-68
2022/10/10 10:43:48;;;;;;;2.93;1.83;;;;;;;20.53;62.82;100417.13;5038629;28;20421;-69
2022/10/10 10:46:38;;;;;;;2.20;1.43;;;;;;;20.52;62.96;100413.41;5040898;28;21173;-69
2022/10/10 10:49:13;;;;;;;2.97;1.90;;;;;;;20.53;62.66;100415.06;5039492;28;20440;-69
2022/10/10 10:52:05;;;;;;;2.20;1.40;;;;;;;20.53;62.69;100417.13;5040490;28;20488;-69
2022/10/10 10:54:45;;;;;;;2.20;1.30;;;;;;;20.53;62.96;100411.38;5011779;28;20807;-68
2022/10/10 10:57:20;;;;;;;2.37;1.23;;;;;;;20.54;63.20;100418.78;5042139;28;20771;-68
2022/10/10 11:00:08;;;;;;;2.63;1.60;;;;;;;20.57;63.08;100412.25;5039497;28;20429;-68
2022/10/10 11:03:05;;;;;;;2.87;1.50;;;;;;;20.56;62.84;100411.41;5033276;28;20435;-69
2022/10/10 11:05:45;;;;;;;2.27;1.10;;;;;;;20.56;63.00;100414.28;5036415;28;20414;-69
2022/10/10 11:08:35;;;;;;;2.10;1.40;;;;;;;20.54;63.56;100408.13;5038234;28;20433;-69
2022/10/10 11:11:09;;;;;;;2.50;1.30;;;;;;;20.52;62.71;100416.28;5038643;28;21203;-68
2022/10/10 11:13:38;;;;;;;2.17;1.27;;;;;;;20.52;62.51;100410.56;5030147;28;20443;-69
2022/10/10 11:16:22;;;;;;;2.57;1.40;;;;;;;20.57;63.03;100401.59;5038392;28;20487;-69
2022/10/10 11:19:06;;;;;;;2.57;1.50;;;;;;;20.56;62.84;100402.81;5030684;28;20422;-69
2022/10/10 11:21:33;;;;;;;2.30;1.30;;;;;;;20.56;63.03;100394.22;5029505;28;20465;-69
2022/10/10 11:24:03;;;;;;;2.20;1.40;;;;;;;20.55;63.23;100392.56;5022635;28;20430;-69
2022/10/10 11:26:34;;;;;;;1.83;1.10;;;;;;;20.55;63.04;100392.56;5022227;28;21302;-69
2022/10/10 11:29:05;;;;;;;2.37;1.33;;;;;;;20.57;63.49;100389.31;5023498;28;20441;-69
2022/10/10 11:31:32;;;;;;;2.03;1.20;;;;;;;20.58;62.60;100397.50;5035618;28;20454;-69
2022/10/10 11:34:05;;;;;;;2.60;1.33;;;;;;;20.57;62.74;100395.84;5027956;28;20521;-69
2022/10/10 11:36:33;;;;;;;4.57;1.47;;;;;;;20.55;62.64;100392.56;5036785;28;20430;-69